sensor_id;sensor_type;location;lat;lon;timestamp;P1;durP1;ratioP1;P2;durP2;ratioP2
14876;SDS011;69691;48.172;17.070;2023-07-31T00:00:29;12.93;;;8.93;;
14876;SDS011;69691;48.172;17.070;2023-07-31T00:02:55;8.07;;;7.25;;
14876;SDS011;69691;48.172;17.070;2023-07-31T00:05:21;10.77;;;8.13;;
14876;SDS011;69691;48.172;17.070;2023-07-31T00:07:47;15.30;;;8.20;;
14876;SDS011;69691;48.172;17.070;2023-07-31T00:10:13;13.38;;;7.65;;
14876;SDS011;69691;48.172;17.070;2023-07-31T00:12:39;8.40;;;7.65;;
14876;SDS011;69691;48.172;17.070;2023-07-31T00:15:08;11.73;;;8.57;;
14876;SDS011;69691;48.172;17.070;2023-07-31T00:17:34;10.32;;;9.15;;
14876;SDS011;69691;48.172;17.070;2023-07-31T00:20:01;9.40;;;8.60;;
14876;SDS011;69691;48.172;17.070;2023-07-31T00:22:27;10.05;;;8.65;;
14876;SDS011;69691;48.172;17.070;2023-07-31T00:24:53;9.23;;;8.10;;
14876;SDS011;69691;48.172;17.070;2023-07-31T00:27:19;13.00;;;9.00;;
14876;SDS011;69691;48.172;17.070;2023-07-31T00:29:45;9.82;;;9.02;;
14876;SDS011;69691;48.172;17.070;2023-07-31T00:32:11;17.05;;;8.70;;
14876;SDS011;69691;48.172;17.070;2023-07-31T00:34:37;11.93;;;9.00;;
14876;SDS011;69691;48.172;17.070;2023-07-31T00:37:03;11.15;;;8.32;;
14876;SDS011;69691;48.172;17.070;2023-07-31T00:39:29;11.32;;;8.25;;
14876;SDS011;69691;48.172;17.070;2023-07-31T00:41:56;9.68;;;8.75;;
14876;SDS011;69691;48.172;17.070;2023-07-31T00:44:22;9.07;;;8.18;;
14876;SDS011;69691;48.172;17.070;2023-07-31T00:46:48;13.77;;;9.15;;
14876;SDS011;69691;48.172;17.070;2023-07-31T00:49:14;9.80;;;8.75;;
14876;SDS011;69691;48.172;17.070;2023-07-31T00:51:41;9.00;;;8.30;;
14876;SDS011;69691;48.172;17.070;2023-07-31T00:54:07;14.98;;;9.68;;
14876;SDS011;69691;48.172;17.070;2023-07-31T00:56:33;12.10;;;8.25;;
14876;SDS011;69691;48.172;17.070;2023-07-31T00:59:00;12.23;;;9.52;;
14876;SDS011;69691;48.172;17.070;2023-07-31T01:01:26;11.50;;;8.98;;
14876;SDS011;69691;48.172;17.070;2023-07-31T01:03:52;11.93;;;8.60;;
14876;SDS011;69691;48.172;17.070;2023-07-31T01:06:40;9.25;;;8.45;;
14876;SDS011;69691;48.172;17.070;2023-07-31T01:09:45;9.50;;;8.30;;
14876;SDS011;69691;48.172;17.070;2023-07-31T01:12:20;9.88;;;8.32;;
14876;SDS011;69691;48.172;17.070;2023-07-31T01:15:02;12.05;;;9.02;;
14876;SDS011;69691;48.172;17.070;2023-07-31T01:17:36;11.82;;;8.60;;
14876;SDS011;69691;48.172;17.070;2023-07-31T01:20:03;9.27;;;8.48;;
14876;SDS011;69691;48.172;17.070;2023-07-31T01:31:22;11.50;;;8.35;;
14876;SDS011;69691;48.172;17.070;2023-07-31T01:33:50;10.48;;;8.70;;
14876;SDS011;69691;48.172;17.070;2023-07-31T01:36:19;12.30;;;8.20;;
14876;SDS011;69691;48.172;17.070;2023-07-31T01:38:45;9.68;;;8.88;;
14876;SDS011;69691;48.172;17.070;2023-07-31T01:41:11;9.68;;;8.60;;
14876;SDS011;69691;48.172;17.070;2023-07-31T01:43:37;10.30;;;7.85;;
14876;SDS011;69691;48.172;17.070;2023-07-31T01:46:04;9.75;;;8.70;;
14876;SDS011;69691;48.172;17.070;2023-07-31T01:48:30;9.70;;;8.45;;
14876;SDS011;69691;48.172;17.070;2023-07-31T01:51:00;9.90;;;8.48;;
14876;SDS011;69691;48.172;17.070;2023-07-31T01:53:27;14.65;;;8.85;;
14876;SDS011;69691;48.172;17.070;2023-07-31T01:55:53;11.40;;;8.85;;
14876;SDS011;69691;48.172;17.070;2023-07-31T01:58:19;10.68;;;7.82;;
14876;SDS011;69691;48.172;17.070;2023-07-31T02:00:45;13.05;;;8.00;;
14876;SDS011;69691;48.172;17.070;2023-07-31T02:03:11;10.35;;;8.35;;
14876;SDS011;69691;48.172;17.070;2023-07-31T02:05:43;8.52;;;7.72;;
14876;SDS011;69691;48.172;17.070;2023-07-31T02:08:11;13.18;;;7.97;;
14876;SDS011;69691;48.172;17.070;2023-07-31T02:10:37;11.07;;;8.52;;
14876;SDS011;69691;48.172;17.070;2023-07-31T02:13:04;12.30;;;8.90;;
14876;SDS011;69691;48.172;17.070;2023-07-31T02:15:30;9.88;;;8.95;;
14876;SDS011;69691;48.172;17.070;2023-07-31T02:17:56;9.90;;;7.90;;
14876;SDS011;69691;48.172;17.070;2023-07-31T02:20:22;11.60;;;8.30;;
14876;SDS011;69691;48.172;17.070;2023-07-31T02:22:48;14.38;;;8.55;;
14876;SDS011;69691;48.172;17.070;2023-07-31T02:25:14;11.82;;;8.25;;
14876;SDS011;69691;48.172;17.070;2023-07-31T02:27:40;9.82;;;8.93;;
14876;SDS011;69691;48.172;17.070;2023-07-31T02:30:06;20.02;;;8.90;;
14876;SDS011;69691;48.172;17.070;2023-07-31T02:32:33;12.93;;;8.35;;
14876;SDS011;69691;48.172;17.070;2023-07-31T02:34:59;13.57;;;8.02;;
14876;SDS011;69691;48.172;17.070;2023-07-31T02:37:25;11.32;;;8.75;;
14876;SDS011;69691;48.172;17.070;2023-07-31T02:39:51;14.23;;;8.40;;
14876;SDS011;69691;48.172;17.070;2023-07-31T02:42:17;8.75;;;7.95;;
14876;SDS011;69691;48.172;17.070;2023-07-31T02:44:43;13.05;;;8.15;;
14876;SDS011;69691;48.172;17.070;2023-07-31T02:47:08;9.50;;;8.60;;
14876;SDS011;69691;48.172;17.070;2023-07-31T02:49:34;21.65;;;8.90;;
14876;SDS011;69691;48.172;17.070;2023-07-31T02:52:00;13.57;;;9.63;;
14876;SDS011;69691;48.172;17.070;2023-07-31T02:54:26;11.30;;;8.93;;
14876;SDS011;69691;48.172;17.070;2023-07-31T02:56:52;10.70;;;9.43;;
14876;SDS011;69691;48.172;17.070;2023-07-31T02:59:18;11.48;;;9.05;;
14876;SDS011;69691;48.172;17.070;2023-07-31T03:01:44;9.80;;;8.77;;
14876;SDS011;69691;48.172;17.070;2023-07-31T03:04:10;8.82;;;8.02;;
14876;SDS011;69691;48.172;17.070;2023-07-31T03:06:36;12.05;;;9.27;;
14876;SDS011;69691;48.172;17.070;2023-07-31T03:09:02;14.45;;;9.05;;
14876;SDS011;69691;48.172;17.070;2023-07-31T03:11:27;16.13;;;8.90;;
14876;SDS011;69691;48.172;17.070;2023-07-31T03:13:53;10.60;;;9.00;;
14876;SDS011;69691;48.172;17.070;2023-07-31T03:16:19;9.75;;;8.18;;
14876;SDS011;69691;48.172;17.070;2023-07-31T03:18:45;11.52;;;9.88;;
14876;SDS011;69691;48.172;17.070;2023-07-31T03:21:12;11.93;;;9.30;;
14876;SDS011;69691;48.172;17.070;2023-07-31T03:23:38;10.20;;;8.70;;
14876;SDS011;69691;48.172;17.070;2023-07-31T03:26:05;11.32;;;8.65;;
14876;SDS011;69691;48.172;17.070;2023-07-31T03:28:33;9.65;;;8.65;;
14876;SDS011;69691;48.172;17.070;2023-07-31T03:30:59;10.02;;;8.93;;
14876;SDS011;69691;48.172;17.070;2023-07-31T03:33:25;9.10;;;8.38;;
14876;SDS011;69691;48.172;17.070;2023-07-31T03:35:51;9.85;;;8.35;;
14876;SDS011;69691;48.172;17.070;2023-07-31T03:38:17;9.52;;;8.55;;
14876;SDS011;69691;48.172;17.070;2023-07-31T03:40:44;9.00;;;8.10;;
14876;SDS011;69691;48.172;17.070;2023-07-31T03:43:10;8.75;;;7.95;;
14876;SDS011;69691;48.172;17.070;2023-07-31T03:45:38;12.55;;;8.45;;
14876;SDS011;69691;48.172;17.070;2023-07-31T03:48:04;11.20;;;8.02;;
14876;SDS011;69691;48.172;17.070;2023-07-31T03:50:30;11.82;;;9.50;;
14876;SDS011;69691;48.172;17.070;2023-07-31T03:52:56;10.40;;;7.22;;
14876;SDS011;69691;48.172;17.070;2023-07-31T03:55:22;12.25;;;8.15;;
14876;SDS011;69691;48.172;17.070;2023-07-31T03:57:48;9.40;;;8.32;;
14876;SDS011;69691;48.172;17.070;2023-07-31T04:00:14;10.35;;;7.90;;
14876;SDS011;69691;48.172;17.070;2023-07-31T04:02:40;8.20;;;7.45;;
14876;SDS011;69691;48.172;17.070;2023-07-31T04:05:07;10.90;;;7.05;;
14876;SDS011;69691;48.172;17.070;2023-07-31T04:07:33;8.77;;;7.13;;
14876;SDS011;69691;48.172;17.070;2023-07-31T04:09:59;14.30;;;7.95;;
14876;SDS011;69691;48.172;17.070;2023-07-31T04:12:25;12.77;;;7.45;;
14876;SDS011;69691;48.172;17.070;2023-07-31T04:14:51;7.25;;;6.65;;
14876;SDS011;69691;48.172;17.070;2023-07-31T04:17:17;7.30;;;6.70;;
14876;SDS011;69691;48.172;17.070;2023-07-31T04:19:43;7.20;;;6.30;;
14876;SDS011;69691;48.172;17.070;2023-07-31T04:22:09;11.20;;;6.63;;
14876;SDS011;69691;48.172;17.070;2023-07-31T04:24:35;9.00;;;6.05;;
14876;SDS011;69691;48.172;17.070;2023-07-31T04:27:01;8.38;;;5.47;;
14876;SDS011;69691;48.172;17.070;2023-07-31T04:29:27;10.00;;;6.00;;
14876;SDS011;69691;48.172;17.070;2023-07-31T04:31:52;6.38;;;5.63;;
14876;SDS011;69691;48.172;17.070;2023-07-31T04:34:18;11.77;;;5.82;;
14876;SDS011;69691;48.172;17.070;2023-07-31T04:36:44;9.30;;;5.70;;
14876;SDS011;69691;48.172;17.070;2023-07-31T04:39:10;8.30;;;5.70;;
14876;SDS011;69691;48.172;17.070;2023-07-31T04:41:36;9.48;;;4.88;;
14876;SDS011;69691;48.172;17.070;2023-07-31T04:44:01;6.13;;;5.15;;
14876;SDS011;69691;48.172;17.070;2023-07-31T04:46:29;9.18;;;5.38;;
14876;SDS011;69691;48.172;17.070;2023-07-31T04:48:55;6.85;;;4.93;;
14876;SDS011;69691;48.172;17.070;2023-07-31T04:51:21;7.47;;;5.55;;
14876;SDS011;69691;48.172;17.070;2023-07-31T04:53:48;9.68;;;5.43;;
14876;SDS011;69691;48.172;17.070;2023-07-31T04:56:14;7.28;;;5.57;;
14876;SDS011;69691;48.172;17.070;2023-07-31T04:58:41;6.10;;;5.43;;
14876;SDS011;69691;48.172;17.070;2023-07-31T05:01:07;5.70;;;4.95;;
14876;SDS011;69691;48.172;17.070;2023-07-31T05:03:32;8.35;;;4.97;;
14876;SDS011;69691;48.172;17.070;2023-07-31T05:05:58;6.45;;;4.55;;
14876;SDS011;69691;48.172;17.070;2023-07-31T05:08:24;7.68;;;5.70;;
14876;SDS011;69691;48.172;17.070;2023-07-31T05:10:50;5.88;;;4.68;;
14876;SDS011;69691;48.172;17.070;2023-07-31T05:13:16;7.10;;;4.72;;
14876;SDS011;69691;48.172;17.070;2023-07-31T05:15:41;5.60;;;4.75;;
14876;SDS011;69691;48.172;17.070;2023-07-31T05:18:07;6.18;;;4.53;;
14876;SDS011;69691;48.172;17.070;2023-07-31T05:20:33;7.38;;;5.72;;
14876;SDS011;69691;48.172;17.070;2023-07-31T05:22:59;11.95;;;5.20;;
14876;SDS011;69691;48.172;17.070;2023-07-31T05:25:24;5.97;;;5.00;;
14876;SDS011;69691;48.172;17.070;2023-07-31T05:27:50;4.97;;;4.55;;
14876;SDS011;69691;48.172;17.070;2023-07-31T05:30:16;4.85;;;4.45;;
14876;SDS011;69691;48.172;17.070;2023-07-31T05:32:42;9.00;;;5.35;;
14876;SDS011;69691;48.172;17.070;2023-07-31T05:35:08;8.52;;;4.65;;
14876;SDS011;69691;48.172;17.070;2023-07-31T05:37:34;8.25;;;4.70;;
14876;SDS011;69691;48.172;17.070;2023-07-31T05:40:00;9.75;;;4.68;;
14876;SDS011;69691;48.172;17.070;2023-07-31T05:42:26;9.43;;;4.40;;
14876;SDS011;69691;48.172;17.070;2023-07-31T05:44:52;4.50;;;4.10;;
14876;SDS011;69691;48.172;17.070;2023-07-31T05:47:17;10.95;;;4.85;;
14876;SDS011;69691;48.172;17.070;2023-07-31T05:49:43;4.93;;;4.05;;
14876;SDS011;69691;48.172;17.070;2023-07-31T05:52:09;9.82;;;4.25;;
14876;SDS011;69691;48.172;17.070;2023-07-31T05:54:35;7.90;;;3.97;;
14876;SDS011;69691;48.172;17.070;2023-07-31T05:57:01;6.82;;;3.63;;
14876;SDS011;69691;48.172;17.070;2023-07-31T05:59:27;7.43;;;4.70;;
14876;SDS011;69691;48.172;17.070;2023-07-31T06:01:53;6.32;;;3.90;;
14876;SDS011;69691;48.172;17.070;2023-07-31T06:04:18;6.30;;;4.47;;
14876;SDS011;69691;48.172;17.070;2023-07-31T06:06:44;6.53;;;3.50;;
14876;SDS011;69691;48.172;17.070;2023-07-31T06:09:10;7.18;;;3.90;;
14876;SDS011;69691;48.172;17.070;2023-07-31T06:11:37;5.13;;;3.95;;
14876;SDS011;69691;48.172;17.070;2023-07-31T06:17:00;5.13;;;3.35;;
14876;SDS011;69691;48.172;17.070;2023-07-31T06:19:26;6.78;;;4.10;;
14876;SDS011;69691;48.172;17.070;2023-07-31T06:21:52;4.40;;;3.65;;
14876;SDS011;69691;48.172;17.070;2023-07-31T06:24:18;9.25;;;4.85;;
14876;SDS011;69691;48.172;17.070;2023-07-31T06:26:45;10.70;;;4.30;;
14876;SDS011;69691;48.172;17.070;2023-07-31T06:29:11;7.47;;;3.88;;
14876;SDS011;69691;48.172;17.070;2023-07-31T06:31:37;6.20;;;3.40;;
14876;SDS011;69691;48.172;17.070;2023-07-31T06:34:03;6.57;;;3.50;;
14876;SDS011;69691;48.172;17.070;2023-07-31T06:36:29;9.25;;;3.67;;
14876;SDS011;69691;48.172;17.070;2023-07-31T06:38:54;4.75;;;3.78;;
14876;SDS011;69691;48.172;17.070;2023-07-31T06:41:20;5.85;;;3.85;;
14876;SDS011;69691;48.172;17.070;2023-07-31T06:43:46;7.32;;;3.38;;
14876;SDS011;69691;48.172;17.070;2023-07-31T06:46:12;3.53;;;3.10;;
14876;SDS011;69691;48.172;17.070;2023-07-31T06:48:38;9.95;;;3.38;;
14876;SDS011;69691;48.172;17.070;2023-07-31T06:51:04;5.25;;;3.75;;
14876;SDS011;69691;48.172;17.070;2023-07-31T06:53:30;3.90;;;3.50;;
14876;SDS011;69691;48.172;17.070;2023-07-31T06:55:56;5.43;;;3.22;;
14876;SDS011;69691;48.172;17.070;2023-07-31T06:58:21;6.47;;;3.33;;
14876;SDS011;69691;48.172;17.070;2023-07-31T07:00:47;8.88;;;4.45;;
14876;SDS011;69691;48.172;17.070;2023-07-31T07:03:15;7.22;;;3.65;;
14876;SDS011;69691;48.172;17.070;2023-07-31T07:05:45;6.32;;;4.43;;
14876;SDS011;69691;48.172;17.070;2023-07-31T07:08:11;7.40;;;3.33;;
14876;SDS011;69691;48.172;17.070;2023-07-31T07:10:37;8.65;;;3.78;;
14876;SDS011;69691;48.172;17.070;2023-07-31T07:13:03;6.70;;;3.65;;
14876;SDS011;69691;48.172;17.070;2023-07-31T07:15:29;9.45;;;3.72;;
14876;SDS011;69691;48.172;17.070;2023-07-31T07:17:54;6.90;;;3.63;;
14876;SDS011;69691;48.172;17.070;2023-07-31T07:20:20;8.23;;;4.38;;
14876;SDS011;69691;48.172;17.070;2023-07-31T07:22:46;4.75;;;3.53;;
14876;SDS011;69691;48.172;17.070;2023-07-31T07:25:12;5.95;;;3.33;;
14876;SDS011;69691;48.172;17.070;2023-07-31T07:27:37;7.38;;;3.63;;
14876;SDS011;69691;48.172;17.070;2023-07-31T07:30:03;4.88;;;3.63;;
14876;SDS011;69691;48.172;17.070;2023-07-31T07:32:30;8.38;;;3.58;;
14876;SDS011;69691;48.172;17.070;2023-07-31T07:34:56;5.30;;;3.58;;
14876;SDS011;69691;48.172;17.070;2023-07-31T07:37:22;4.80;;;3.45;;
14876;SDS011;69691;48.172;17.070;2023-07-31T07:39:48;5.18;;;3.45;;
14876;SDS011;69691;48.172;17.070;2023-07-31T07:42:13;3.67;;;3.38;;
14876;SDS011;69691;48.172;17.070;2023-07-31T07:44:39;7.35;;;3.15;;
14876;SDS011;69691;48.172;17.070;2023-07-31T07:47:05;3.83;;;3.40;;
14876;SDS011;69691;48.172;17.070;2023-07-31T07:49:32;6.15;;;3.67;;
14876;SDS011;69691;48.172;17.070;2023-07-31T07:51:59;9.25;;;3.30;;
14876;SDS011;69691;48.172;17.070;2023-07-31T07:54:26;9.95;;;3.50;;
14876;SDS011;69691;48.172;17.070;2023-07-31T07:56:52;5.97;;;3.53;;
14876;SDS011;69691;48.172;17.070;2023-07-31T07:59:18;12.57;;;3.70;;
14876;SDS011;69691;48.172;17.070;2023-07-31T08:01:44;8.90;;;3.10;;
14876;SDS011;69691;48.172;17.070;2023-07-31T08:04:09;8.23;;;3.42;;
14876;SDS011;69691;48.172;17.070;2023-07-31T08:06:35;7.20;;;3.90;;
14876;SDS011;69691;48.172;17.070;2023-07-31T08:09:01;8.02;;;3.60;;
14876;SDS011;69691;48.172;17.070;2023-07-31T08:11:31;6.43;;;3.47;;
14876;SDS011;69691;48.172;17.070;2023-07-31T08:13:58;7.63;;;3.33;;
14876;SDS011;69691;48.172;17.070;2023-07-31T08:16:23;9.70;;;3.67;;
14876;SDS011;69691;48.172;17.070;2023-07-31T08:18:49;7.68;;;3.45;;
14876;SDS011;69691;48.172;17.070;2023-07-31T08:21:15;5.07;;;3.25;;
14876;SDS011;69691;48.172;17.070;2023-07-31T08:23:41;5.82;;;3.17;;
14876;SDS011;69691;48.172;17.070;2023-07-31T08:26:07;6.82;;;3.10;;
14876;SDS011;69691;48.172;17.070;2023-07-31T08:28:32;5.47;;;3.22;;
14876;SDS011;69691;48.172;17.070;2023-07-31T08:31:00;5.35;;;3.25;;
14876;SDS011;69691;48.172;17.070;2023-07-31T08:33:25;8.40;;;3.42;;
14876;SDS011;69691;48.172;17.070;2023-07-31T08:35:51;5.65;;;2.97;;
14876;SDS011;69691;48.172;17.070;2023-07-31T08:38:17;8.25;;;3.25;;
14876;SDS011;69691;48.172;17.070;2023-07-31T08:40:43;8.68;;;3.70;;
14876;SDS011;69691;48.172;17.070;2023-07-31T08:43:09;8.52;;;3.28;;
14876;SDS011;69691;48.172;17.070;2023-07-31T08:45:35;10.55;;;2.97;;
14876;SDS011;69691;48.172;17.070;2023-07-31T08:48:01;8.85;;;3.53;;
14876;SDS011;69691;48.172;17.070;2023-07-31T08:50:27;5.82;;;3.85;;
14876;SDS011;69691;48.172;17.070;2023-07-31T08:52:53;8.30;;;3.40;;
14876;SDS011;69691;48.172;17.070;2023-07-31T08:55:19;3.83;;;2.75;;
14876;SDS011;69691;48.172;17.070;2023-07-31T08:57:50;6.13;;;3.47;;
14876;SDS011;69691;48.172;17.070;2023-07-31T09:00:19;7.82;;;4.00;;
14876;SDS011;69691;48.172;17.070;2023-07-31T09:02:51;5.55;;;3.38;;
14876;SDS011;69691;48.172;17.070;2023-07-31T09:05:21;8.68;;;3.42;;
14876;SDS011;69691;48.172;17.070;2023-07-31T09:07:48;5.05;;;3.53;;
14876;SDS011;69691;48.172;17.070;2023-07-31T09:10:15;5.45;;;3.33;;
14876;SDS011;69691;48.172;17.070;2023-07-31T09:12:42;4.65;;;3.20;;
14876;SDS011;69691;48.172;17.070;2023-07-31T09:15:09;4.78;;;3.13;;
14876;SDS011;69691;48.172;17.070;2023-07-31T09:17:35;6.32;;;2.72;;
14876;SDS011;69691;48.172;17.070;2023-07-31T09:20:23;5.05;;;3.05;;
14876;SDS011;69691;48.172;17.070;2023-07-31T09:22:48;5.93;;;3.70;;
14876;SDS011;69691;48.172;17.070;2023-07-31T09:27:53;9.90;;;3.67;;
14876;SDS011;69691;48.172;17.070;2023-07-31T09:30:24;5.63;;;3.72;;
14876;SDS011;69691;48.172;17.070;2023-07-31T09:32:51;8.27;;;3.83;;
14876;SDS011;69691;48.172;17.070;2023-07-31T09:35:31;6.88;;;3.10;;
14876;SDS011;69691;48.172;17.070;2023-07-31T09:38:00;7.85;;;3.58;;
14876;SDS011;69691;48.172;17.070;2023-07-31T09:40:31;5.35;;;3.30;;
14876;SDS011;69691;48.172;17.070;2023-07-31T09:43:03;7.53;;;3.25;;
14876;SDS011;69691;48.172;17.070;2023-07-31T09:45:33;8.70;;;3.58;;
14876;SDS011;69691;48.172;17.070;2023-07-31T09:48:03;6.47;;;3.67;;
14876;SDS011;69691;48.172;17.070;2023-07-31T09:50:34;6.25;;;3.60;;
14876;SDS011;69691;48.172;17.070;2023-07-31T09:53:07;7.03;;;3.47;;
14876;SDS011;69691;48.172;17.070;2023-07-31T09:55:36;7.05;;;3.22;;
14876;SDS011;69691;48.172;17.070;2023-07-31T09:58:03;7.72;;;3.90;;
14876;SDS011;69691;48.172;17.070;2023-07-31T10:00:31;8.52;;;3.50;;
14876;SDS011;69691;48.172;17.070;2023-07-31T10:02:58;69.40;;;4.55;;
14876;SDS011;69691;48.172;17.070;2023-07-31T10:05:30;9.85;;;3.92;;
14876;SDS011;69691;48.172;17.070;2023-07-31T10:08:00;7.20;;;3.65;;
14876;SDS011;69691;48.172;17.070;2023-07-31T10:10:26;14.55;;;4.03;;
14876;SDS011;69691;48.172;17.070;2023-07-31T10:12:53;5.72;;;3.42;;
14876;SDS011;69691;48.172;17.070;2023-07-31T10:15:21;7.13;;;4.00;;
14876;SDS011;69691;48.172;17.070;2023-07-31T10:17:48;6.68;;;3.47;;
14876;SDS011;69691;48.172;17.070;2023-07-31T10:20:15;10.85;;;3.42;;
14876;SDS011;69691;48.172;17.070;2023-07-31T10:22:42;6.88;;;3.88;;
14876;SDS011;69691;48.172;17.070;2023-07-31T10:25:11;13.40;;;5.03;;
14876;SDS011;69691;48.172;17.070;2023-07-31T10:27:38;8.32;;;3.95;;
14876;SDS011;69691;48.172;17.070;2023-07-31T10:30:08;7.03;;;3.63;;
14876;SDS011;69691;48.172;17.070;2023-07-31T10:32:41;7.68;;;3.47;;
14876;SDS011;69691;48.172;17.070;2023-07-31T10:35:08;8.32;;;3.40;;
14876;SDS011;69691;48.172;17.070;2023-07-31T10:37:36;4.28;;;2.97;;
14876;SDS011;69691;48.172;17.070;2023-07-31T10:40:05;5.28;;;3.47;;
14876;SDS011;69691;48.172;17.070;2023-07-31T10:42:36;10.05;;;4.05;;
14876;SDS011;69691;48.172;17.070;2023-07-31T10:45:14;8.35;;;3.67;;
14876;SDS011;69691;48.172;17.070;2023-07-31T10:48:07;8.75;;;3.80;;
14876;SDS011;69691;48.172;17.070;2023-07-31T10:50:46;7.57;;;3.50;;
14876;SDS011;69691;48.172;17.070;2023-07-31T10:53:34;6.80;;;3.28;;
14876;SDS011;69691;48.172;17.070;2023-07-31T10:56:00;5.38;;;2.83;;
14876;SDS011;69691;48.172;17.070;2023-07-31T10:58:31;8.18;;;3.75;;
14876;SDS011;69691;48.172;17.070;2023-07-31T11:00:59;6.85;;;3.08;;
14876;SDS011;69691;48.172;17.070;2023-07-31T11:03:41;7.55;;;3.40;;
14876;SDS011;69691;48.172;17.070;2023-07-31T11:06:12;7.35;;;3.85;;
14876;SDS011;69691;48.172;17.070;2023-07-31T11:08:46;7.03;;;3.55;;
14876;SDS011;69691;48.172;17.070;2023-07-31T11:11:15;5.95;;;3.13;;
14876;SDS011;69691;48.172;17.070;2023-07-31T11:13:47;9.50;;;3.47;;
14876;SDS011;69691;48.172;17.070;2023-07-31T11:16:15;6.38;;;3.33;;
14876;SDS011;69691;48.172;17.070;2023-07-31T11:18:43;5.30;;;3.20;;
14876;SDS011;69691;48.172;17.070;2023-07-31T11:21:17;6.43;;;3.15;;
14876;SDS011;69691;48.172;17.070;2023-07-31T11:23:46;6.30;;;3.70;;
14876;SDS011;69691;48.172;17.070;2023-07-31T11:26:18;7.63;;;3.58;;
14876;SDS011;69691;48.172;17.070;2023-07-31T11:28:46;4.60;;;3.22;;
14876;SDS011;69691;48.172;17.070;2023-07-31T11:31:13;8.00;;;3.45;;
14876;SDS011;69691;48.172;17.070;2023-07-31T11:33:38;5.57;;;3.25;;
14876;SDS011;69691;48.172;17.070;2023-07-31T11:36:04;5.97;;;3.03;;
14876;SDS011;69691;48.172;17.070;2023-07-31T11:38:31;6.03;;;3.55;;
14876;SDS011;69691;48.172;17.070;2023-07-31T11:41:00;5.05;;;3.00;;
14876;SDS011;69691;48.172;17.070;2023-07-31T11:43:28;4.53;;;3.47;;
14876;SDS011;69691;48.172;17.070;2023-07-31T11:45:55;7.43;;;3.88;;
14876;SDS011;69691;48.172;17.070;2023-07-31T11:48:26;4.32;;;3.15;;
14876;SDS011;69691;48.172;17.070;2023-07-31T11:50:57;6.05;;;3.45;;
14876;SDS011;69691;48.172;17.070;2023-07-31T11:56:00;10.05;;;3.72;;
14876;SDS011;69691;48.172;17.070;2023-07-31T11:58:29;8.70;;;3.45;;
14876;SDS011;69691;48.172;17.070;2023-07-31T12:00:57;5.15;;;3.08;;
14876;SDS011;69691;48.172;17.070;2023-07-31T12:03:24;13.30;;;4.45;;
14876;SDS011;69691;48.172;17.070;2023-07-31T12:05:52;5.28;;;3.25;;
14876;SDS011;69691;48.172;17.070;2023-07-31T12:08:20;10.98;;;3.63;;
14876;SDS011;69691;48.172;17.070;2023-07-31T12:10:50;8.77;;;3.60;;
14876;SDS011;69691;48.172;17.070;2023-07-31T12:13:21;6.18;;;3.42;;
14876;SDS011;69691;48.172;17.070;2023-07-31T12:15:53;4.57;;;3.00;;
14876;SDS011;69691;48.172;17.070;2023-07-31T12:18:21;10.73;;;3.60;;
14876;SDS011;69691;48.172;17.070;2023-07-31T12:20:49;12.65;;;3.58;;
14876;SDS011;69691;48.172;17.070;2023-07-31T12:23:30;7.63;;;3.78;;
14876;SDS011;69691;48.172;17.070;2023-07-31T12:26:04;8.23;;;3.58;;
14876;SDS011;69691;48.172;17.070;2023-07-31T12:28:37;8.88;;;3.90;;
14876;SDS011;69691;48.172;17.070;2023-07-31T12:31:12;8.45;;;3.28;;
14876;SDS011;69691;48.172;17.070;2023-07-31T12:33:43;6.82;;;3.88;;
14876;SDS011;69691;48.172;17.070;2023-07-31T12:36:12;11.07;;;3.97;;
14876;SDS011;69691;48.172;17.070;2023-07-31T12:38:42;8.70;;;4.20;;
14876;SDS011;69691;48.172;17.070;2023-07-31T12:41:08;6.05;;;3.28;;
14876;SDS011;69691;48.172;17.070;2023-07-31T12:43:36;7.75;;;4.03;;
14876;SDS011;69691;48.172;17.070;2023-07-31T12:46:03;8.75;;;4.22;;
14876;SDS011;69691;48.172;17.070;2023-07-31T12:48:31;9.27;;;3.83;;
14876;SDS011;69691;48.172;17.070;2023-07-31T12:50:57;6.72;;;4.03;;
14876;SDS011;69691;48.172;17.070;2023-07-31T12:53:23;7.10;;;4.18;;
14876;SDS011;69691;48.172;17.070;2023-07-31T12:55:49;5.50;;;3.70;;
14876;SDS011;69691;48.172;17.070;2023-07-31T12:58:15;6.93;;;3.10;;
14876;SDS011;69691;48.172;17.070;2023-07-31T13:00:41;11.63;;;4.18;;
14876;SDS011;69691;48.172;17.070;2023-07-31T13:03:07;8.25;;;3.92;;
14876;SDS011;69691;48.172;17.070;2023-07-31T13:05:33;4.70;;;3.38;;
14876;SDS011;69691;48.172;17.070;2023-07-31T13:07:59;6.38;;;3.45;;
14876;SDS011;69691;48.172;17.070;2023-07-31T13:10:26;6.28;;;3.85;;
14876;SDS011;69691;48.172;17.070;2023-07-31T13:12:54;5.55;;;3.75;;
14876;SDS011;69691;48.172;17.070;2023-07-31T13:15:20;7.95;;;3.97;;
14876;SDS011;69691;48.172;17.070;2023-07-31T13:17:46;7.50;;;3.65;;
14876;SDS011;69691;48.172;17.070;2023-07-31T13:20:12;7.90;;;3.40;;
14876;SDS011;69691;48.172;17.070;2023-07-31T13:22:38;7.30;;;3.63;;
14876;SDS011;69691;48.172;17.070;2023-07-31T13:25:04;7.47;;;3.33;;
14876;SDS011;69691;48.172;17.070;2023-07-31T13:27:31;7.20;;;3.75;;
14876;SDS011;69691;48.172;17.070;2023-07-31T13:29:57;5.30;;;3.10;;
14876;SDS011;69691;48.172;17.070;2023-07-31T13:32:23;8.20;;;3.63;;
14876;SDS011;69691;48.172;17.070;2023-07-31T13:34:49;8.88;;;3.85;;
14876;SDS011;69691;48.172;17.070;2023-07-31T13:37:15;4.45;;;3.08;;
14876;SDS011;69691;48.172;17.070;2023-07-31T13:39:41;8.23;;;3.38;;
14876;SDS011;69691;48.172;17.070;2023-07-31T13:42:07;9.25;;;3.63;;
14876;SDS011;69691;48.172;17.070;2023-07-31T13:44:36;6.35;;;3.63;;
14876;SDS011;69691;48.172;17.070;2023-07-31T13:47:04;8.40;;;3.83;;
14876;SDS011;69691;48.172;17.070;2023-07-31T13:49:30;8.07;;;3.88;;
14876;SDS011;69691;48.172;17.070;2023-07-31T13:51:57;12.32;;;4.50;;
14876;SDS011;69691;48.172;17.070;2023-07-31T13:54:23;5.25;;;3.72;;
14876;SDS011;69691;48.172;17.070;2023-07-31T13:56:50;8.13;;;3.33;;
14876;SDS011;69691;48.172;17.070;2023-07-31T13:59:17;10.27;;;3.55;;
14876;SDS011;69691;48.172;17.070;2023-07-31T14:01:44;14.88;;;3.95;;
14876;SDS011;69691;48.172;17.070;2023-07-31T14:04:10;7.75;;;3.90;;
14876;SDS011;69691;48.172;17.070;2023-07-31T14:06:36;4.50;;;3.65;;
14876;SDS011;69691;48.172;17.070;2023-07-31T14:09:02;12.52;;;3.45;;
14876;SDS011;69691;48.172;17.070;2023-07-31T14:11:28;7.93;;;3.42;;
14876;SDS011;69691;48.172;17.070;2023-07-31T14:13:56;6.55;;;3.53;;
14876;SDS011;69691;48.172;17.070;2023-07-31T14:16:22;13.90;;;4.38;;
14876;SDS011;69691;48.172;17.070;2023-07-31T14:18:48;10.02;;;4.22;;
14876;SDS011;69691;48.172;17.070;2023-07-31T14:21:14;8.88;;;4.07;;
14876;SDS011;69691;48.172;17.070;2023-07-31T14:23:40;9.50;;;3.45;;
14876;SDS011;69691;48.172;17.070;2023-07-31T14:26:06;7.20;;;3.35;;
14876;SDS011;69691;48.172;17.070;2023-07-31T14:28:33;6.03;;;3.63;;
14876;SDS011;69691;48.172;17.070;2023-07-31T14:30:58;7.53;;;3.70;;
14876;SDS011;69691;48.172;17.070;2023-07-31T14:33:24;9.32;;;3.05;;
14876;SDS011;69691;48.172;17.070;2023-07-31T14:35:51;5.57;;;3.13;;
14876;SDS011;69691;48.172;17.070;2023-07-31T14:38:17;12.15;;;3.13;;
14876;SDS011;69691;48.172;17.070;2023-07-31T14:40:43;10.55;;;3.38;;
14876;SDS011;69691;48.172;17.070;2023-07-31T14:43:09;5.90;;;3.42;;
14876;SDS011;69691;48.172;17.070;2023-07-31T14:45:35;8.43;;;3.53;;
14876;SDS011;69691;48.172;17.070;2023-07-31T14:48:00;7.47;;;2.92;;